Time;durP1;ratioP1;P1;durP2;ratioP2;P2;SDS_P1;SDS_P2;PMS_P1;PMS_P2;Temp;Humidity;BMP_temperature;BMP_pressure;BME280_temperature;BME280_humidity;BME280_pressure;Samples;Min_cycle;Max_cycle;Signal;HPM_P1;HPM_P2
2022/03/28 00:00:35;;;;;;;21.17;11.93;;;;;;;7.75;68.97;102524.50;5297742;28;20024;-73
2022/03/28 00:03:06;;;;;;;19.83;11.20;;;;;;;7.65;69.05;102525.97;5297337;28;20028;-72
2022/03/28 00:05:37;;;;;;;23.80;12.83;;;;;;;7.59;69.59;102528.41;5297589;28;20024;-72
2022/03/28 00:08:09;;;;;;;20.10;11.77;;;;;;;7.58;69.39;102529.25;5297513;28;20024;-70
2022/03/28 00:10:40;;;;;;;26.47;12.20;;;;;;;7.57;70.16;102522.31;5297159;28;20075;-75
2022/03/28 00:13:12;;;;;;;28.30;12.83;;;;;;;7.47;69.97;102520.25;5297449;28;20039;-71
2022/03/28 00:15:43;;;;;;;24.17;12.23;;;;;;;7.35;70.67;102513.03;5297412;28;20055;-74
2022/03/28 00:18:14;;;;;;;25.37;13.70;;;;;;;7.24;70.74;102504.94;5297010;28;20475;-71
2022/03/28 00:20:47;;;;;;;21.87;12.27;;;;;;;7.34;70.25;102500.00;5297402;28;20034;-71
2022/03/28 00:23:22;;;;;;;21.02;11.90;;;;;;;7.23;70.79;102497.09;5297334;28;20472;-71
2022/03/28 00:25:53;;;;;;;24.65;13.00;;;;;;;7.17;71.35;102497.81;5296622;28;20028;-72
2022/03/28 00:28:25;;;;;;;22.90;12.37;;;;;;;7.18;71.19;102496.09;5297079;28;20039;-72
2022/03/28 00:30:56;;;;;;;24.53;12.47;;;;;;;7.08;71.34;102492.38;5297172;28;20032;-72
2022/03/28 00:33:27;;;;;;;20.63;12.40;;;;;;;6.99;71.89;102487.81;5296980;28;20050;-74
2022/03/28 00:35:59;;;;;;;21.00;13.23;;;;;;;6.99;71.92;102484.31;5297082;28;20028;-72
2022/03/28 00:38:31;;;;;;;24.03;12.67;;;;;;;6.98;72.28;102477.38;5296583;28;20055;-72
2022/03/28 00:41:04;;;;;;;20.57;12.47;;;;;;;6.98;71.85;102482.56;5296810;28;20551;-75
2022/03/28 00:43:43;;;;;;;24.17;12.48;;;;;;;6.98;72.40;102479.97;5296920;28;20040;-72
2022/03/28 00:46:14;;;;;;;25.00;12.50;;;;;;;6.97;72.18;102479.13;5296844;28;20028;-75
2022/03/28 00:48:45;;;;;;;23.17;12.97;;;;;;;6.96;71.95;102479.94;5296228;28;20101;-72
2022/03/28 00:51:19;;;;;;;21.87;12.93;;;;;;;6.88;72.84;102474.50;5296564;28;20127;-71
2022/03/28 00:53:50;;;;;;;27.08;12.93;;;;;;;6.82;72.83;102469.16;5297034;28;20036;-73
2022/03/28 00:56:22;;;;;;;18.33;11.80;;;;;;;6.73;73.09;102466.31;5296672;28;20047;-72
2022/03/28 00:58:54;;;;;;;24.67;12.47;;;;;;;6.68;73.52;102458.38;5296615;28;20062;-74
2022/03/28 01:01:26;;;;;;;17.67;11.57;;;;;;;6.72;73.67;102468.00;5296795;28;20024;-71
2022/03/28 01:03:58;;;;;;;25.75;12.73;;;;;;;6.68;73.69;102457.47;5296510;28;20032;-74
2022/03/28 01:06:31;;;;;;;25.63;12.53;;;;;;;6.66;73.83;102443.59;5296434;28;20082;-72
2022/03/28 01:09:03;;;;;;;27.75;12.55;;;;;;;6.50;74.12;102447.44;5296680;28;20032;-72
2022/03/28 01:11:35;;;;;;;18.25;11.52;;;;;;;6.42;74.35;102449.78;5296115;28;20076;-75
2022/03/28 01:14:07;;;;;;;24.25;10.90;;;;;;;6.45;74.22;102442.13;5296210;28;20055;-74
2022/03/28 01:19:28;;;;;;;21.38;11.30;;;;;;;6.35;74.60;102448.72;5296221;28;20032;-73
2022/03/28 01:22:00;;;;;;;25.17;12.37;;;;;;;6.28;75.35;102438.13;5296441;28;20216;-74
2022/03/28 01:24:31;;;;;;;20.73;11.73;;;;;;;6.18;75.56;102434.34;5296278;28;20032;-72
2022/03/28 01:27:04;;;;;;;24.27;11.93;;;;;;;6.21;75.30;102434.47;5296356;28;20027;-71
2022/03/28 01:29:35;;;;;;;;;;;;;;;6.32;72.56;102432.22;5296658;28;20021;-72
2022/03/28 01:32:07;;;;;;;24.55;12.48;;;;;;;6.12;75.10;102419.53;5296214;28;19916;-73
2022/03/28 01:34:39;;;;;;;20.92;12.27;;;;;;;6.04;75.10;102423.59;5296058;28;20499;-72
2022/03/28 01:37:10;;;;;;;20.53;11.30;;;;;;;6.05;75.61;102419.28;5297626;28;20148;-71
2022/03/28 01:39:42;;;;;;;18.43;11.03;;;;;;;5.99;76.01;102413.06;5300504;28;20044;-70
2022/03/28 01:42:13;;;;;;;21.80;12.27;;;;;;;5.89;76.50;102413.56;5300458;28;20020;-75
2022/03/28 01:44:49;;;;;;;21.17;11.27;;;;;;;5.86;76.36;102410.91;5300533;28;20369;-71
2022/03/28 01:47:21;;;;;;;18.67;11.50;;;;;;;5.84;76.82;102413.44;5300440;28;20106;-73
2022/03/28 01:49:52;;;;;;;21.20;11.50;;;;;;;5.88;76.62;102409.22;5300178;28;20131;-70
2022/03/28 01:52:23;;;;;;;26.53;11.87;;;;;;;5.84;76.53;102418.59;5299980;28;20032;-70
2022/03/28 01:54:54;;;;;;;25.07;12.53;;;;;;;5.79;77.13;102416.69;5300190;28;20063;-74
2022/03/28 01:57:26;;;;;;;19.17;11.53;;;;;;;5.83;77.00;102411.66;5300269;28;20077;-71
2022/03/28 01:59:58;;;;;;;28.23;12.93;;;;;;;5.77;76.99;102416.63;5300162;28;20452;-71
2022/03/28 02:02:30;;;;;;;26.57;13.13;;;;;;;5.73;77.13;102406.13;5299863;28;20775;-71
2022/03/28 02:05:02;;;;;;;23.85;13.27;;;;;;;5.75;77.04;102410.53;5300057;28;20031;-72
2022/03/28 02:07:33;;;;;;;20.35;12.27;;;;;;;5.73;77.55;102398.34;5299913;28;20031;-73
2022/03/28 02:10:06;;;;;;;20.03;11.90;;;;;;;5.68;77.60;102405.97;5299464;28;20436;-70
2022/03/28 02:12:37;;;;;;;24.80;12.48;;;;;;;5.62;78.10;102406.66;5299535;28;20514;-69
2022/03/28 02:15:10;;;;;;;20.00;12.73;;;;;;;5.56;78.33;102402.97;5299768;28;20134;-75
2022/03/28 02:17:41;;;;;;;23.08;12.45;;;;;;;5.57;78.78;102396.97;5300115;28;20059;-72
2022/03/28 02:20:14;;;;;;;24.23;13.17;;;;;;;5.54;78.95;102407.19;5299775;28;20130;-73
2022/03/28 02:22:46;;;;;;;27.30;12.45;;;;;;;5.57;78.92;102402.13;5299751;28;20054;-75
2022/03/28 02:25:18;;;;;;;28.55;12.50;;;;;;;5.49;79.02;102396.72;5299288;28;20375;-75
2022/03/28 02:27:49;;;;;;;20.60;12.13;;;;;;;5.50;79.34;102389.84;5299905;28;20030;-72
2022/03/28 02:30:20;;;;;;;22.40;12.30;;;;;;;5.35;79.43;102395.38;5299710;28;20047;-71
2022/03/28 02:32:52;;;;;;;22.00;11.97;;;;;;;5.24;79.65;102388.09;5299422;28;20058;-73
2022/03/28 02:35:24;;;;;;;22.80;13.43;;;;;;;5.37;79.72;102383.38;5299116;28;20439;-70
2022/03/28 02:37:57;;;;;;;26.13;13.00;;;;;;;5.23;79.75;102385.47;5298883;28;20114;-74
2022/03/28 02:40:29;;;;;;;23.25;12.32;;;;;;;5.23;80.45;102386.38;5299430;28;20288;-73
2022/03/28 02:43:02;;;;;;;21.98;11.80;;;;;;;5.18;80.88;102380.13;5299456;28;20043;-70
2022/03/28 02:45:36;;;;;;;25.58;11.48;;;;;;;5.17;80.78;102375.81;5299193;28;20024;-71
2022/03/28 02:48:07;;;;;;;24.05;13.75;;;;;;;5.10;81.00;102366.06;5298298;28;20020;-74
2022/03/28 02:50:38;;;;;;;29.37;12.73;;;;;;;5.16;80.78;102366.28;5298816;28;20376;-72
2022/03/28 02:53:10;;;;;;;22.77;12.47;;;;;;;5.10;81.17;102358.31;5299057;28;20787;-72
2022/03/28 02:55:42;;;;;;;26.67;11.67;;;;;;;5.08;81.23;102355.66;5299082;28;20066;-74
2022/03/28 02:58:13;;;;;;;27.67;12.93;;;;;;;5.00;81.45;102359.69;5299242;28;20056;-71
2022/03/28 03:00:45;;;;;;;22.43;13.13;;;;;;;4.98;81.66;102358.75;5298757;28;20115;-74
2022/03/28 03:03:16;;;;;;;22.23;12.00;;;;;;;4.95;81.84;102358.66;5297247;28;20880;-71
2022/03/28 03:05:49;;;;;;;27.10;11.73;;;;;;;4.98;81.53;102352.72;5298921;28;20028;-72
2022/03/28 03:08:21;;;;;;;24.45;11.77;;;;;;;4.95;81.85;102350.91;5298336;28;20158;-71
2022/03/28 03:10:52;;;;;;;26.33;12.30;;;;;;;4.96;81.76;102350.09;5298795;28;20115;-71
2022/03/28 03:13:23;;;;;;;23.37;12.33;;;;;;;4.94;81.61;102356.88;5298927;28;20183;-75
2022/03/28 03:15:55;;;;;;;27.23;12.70;;;;;;;4.95;81.49;102344.84;5298680;28;20080;-74
2022/03/28 03:18:26;;;;;;;27.77;13.30;;;;;;;4.83;81.82;102342.69;5298462;28;20150;-71
2022/03/28 03:20:59;;;;;;;27.10;13.00;;;;;;;4.83;82.46;102343.59;5298774;28;20124;-70
2022/03/28 03:23:31;;;;;;;29.77;11.95;;;;;;;4.85;82.91;102344.53;5298479;28;20036;-71
2022/03/28 03:26:02;;;;;;;26.07;11.90;;;;;;;4.83;82.81;102337.53;5298259;28;20039;-70
2022/03/28 03:28:33;;;;;;;22.37;13.63;;;;;;;4.73;83.41;102344.97;5298269;28;20032;-70
2022/03/28 03:31:06;;;;;;;30.43;12.30;;;;;;;4.76;83.46;102344.19;5298049;28;20040;-72
2022/03/28 03:33:37;;;;;;;33.03;12.43;;;;;;;4.73;83.65;102347.56;5298318;28;20076;-69
2022/03/28 03:36:09;;;;;;;30.20;11.83;;;;;;;4.74;83.74;102331.22;5298043;28;20030;-72
2022/03/28 03:38:40;;;;;;;28.30;12.43;;;;;;;4.68;84.04;102330.97;5297531;28;20059;-72
2022/03/28 03:41:11;;;;;;;22.77;12.30;;;;;;;4.66;84.24;102331.78;5297458;28;20535;-72
2022/03/28 03:43:44;;;;;;;28.47;12.27;;;;;;;4.66;84.02;102324.03;5298264;28;20147;-70
2022/03/28 03:46:15;;;;;;;26.73;12.55;;;;;;;4.66;84.46;102327.47;5297933;28;20523;-72
2022/03/28 03:48:47;;;;;;;28.03;12.40;;;;;;;4.65;84.33;102322.25;5297993;28;20020;-70
2022/03/28 03:51:18;;;;;;;28.30;13.13;;;;;;;4.65;84.63;102323.13;5297755;28;20034;-74
2022/03/28 03:53:49;;;;;;;28.73;13.23;;;;;;;4.63;84.60;102313.56;5297932;28;20264;-71
2022/03/28 03:56:21;;;;;;;25.30;12.63;;;;;;;4.53;84.78;102313.22;5297349;28;20032;-70
2022/03/28 03:58:52;;;;;;;32.97;12.97;;;;;;;4.56;85.06;102315.06;5297400;28;20206;-72
2022/03/28 04:01:26;;;;;;;29.77;12.67;;;;;;;4.45;85.30;102308.63;5297150;28;20032;-70
2022/03/28 04:03:57;;;;;;;30.73;12.45;;;;;;;4.42;85.18;102308.50;5297334;28;20032;-71
2022/03/28 04:06:28;;;;;;;27.40;12.23;;;;;;;4.40;85.64;102312.75;5297579;28;20479;-72
2022/03/28 04:09:00;;;;;;;26.90;12.73;;;;;;;4.34;86.17;102305.63;5297736;28;20039;-70
2022/03/28 04:11:31;;;;;;;33.57;12.50;;;;;;;4.26;86.39;102313.09;5297304;28;20032;-71
2022/03/28 04:14:03;;;;;;;31.10;12.93;;;;;;;4.30;86.78;102302.06;5297536;28;20036;-70
2022/03/28 04:16:34;;;;;;;36.93;13.37;;;;;;;4.27;86.33;102301.94;5296069;28;20035;-70
2022/03/28 04:19:06;;;;;;;32.60;12.57;;;;;;;4.28;86.69;102289.91;5297259;28;20379;-75
2022/03/28 04:21:37;;;;;;;28.80;11.83;;;;;;;4.25;86.84;102294.97;5297595;28;20020;-76
2022/03/28 04:24:08;;;;;;;23.80;10.87;;;;;;;4.22;86.66;102293.16;5297528;28;20032;-72
2022/03/28 04:26:40;;;;;;;33.97;12.80;;;;;;;4.15;87.46;102294.63;5297013;28;20028;-73
2022/03/28 04:29:11;;;;;;;31.83;13.50;;;;;;;4.16;87.52;102292.91;5297217;28;20508;-72
2022/03/28 04:31:42;;;;;;;28.73;12.83;;;;;;;4.16;87.57;102291.22;5297275;28;20066;-72
2022/03/28 04:34:14;;;;;;;31.43;13.13;;;;;;;4.10;87.80;102297.84;5297196;28;20294;-72
2022/03/28 04:36:45;;;;;;;25.93;12.23;;;;;;;4.06;87.94;102303.69;5297064;28;20032;-71
2022/03/28 04:39:18;;;;;;;26.23;13.90;;;;;;;4.01;88.30;102296.66;5296789;28;20377;-72
2022/03/28 04:41:49;;;;;;;;;;;;;;;4.05;86.63;102294.22;5297373;28;20028;-72
2022/03/28 04:44:20;;;;;;;25.55;12.60;;;;;;;4.01;87.19;102300.97;5296981;28;19916;-74
2022/03/28 04:46:52;;;;;;;34.07;13.47;;;;;;;3.99;87.30;102300.91;5296814;28;20110;-73
2022/03/28 04:49:23;;;;;;;28.73;12.00;;;;;;;3.98;87.76;102296.56;5296969;28;20479;-73
2022/03/28 04:51:54;;;;;;;28.30;12.67;;;;;;;3.94;88.25;102299.81;5297078;28;20063;-75
2022/03/28 04:54:26;;;;;;;35.67;14.87;;;;;;;3.92;88.12;102295.44;5296916;28;20476;-75
2022/03/28 04:56:57;;;;;;;33.73;14.30;;;;;;;3.83;88.59;102291.69;5296171;28;20055;-77
2022/03/28 04:59:28;;;;;;;29.53;12.50;;;;;;;3.76;89.28;102296.53;5297096;28;20036;-72
2022/03/28 05:02:00;;;;;;;29.80;13.30;;;;;;;3.74;89.81;102295.59;5296287;28;20157;-73
2022/03/28 05:04:32;;;;;;;31.60;11.63;;;;;;;3.75;89.66;102299.91;5296317;28;20498;-73
2022/03/28 05:07:03;;;;;;;33.70;12.50;;;;;;;3.78;89.88;102300.03;5296415;28;20035;-72
2022/03/28 05:09:35;;;;;;;33.63;12.90;;;;;;;3.76;90.10;102296.53;5296711;28;20039;-71
2022/03/28 05:12:07;;;;;;;34.90;12.85;;;;;;;3.69;89.97;102298.00;5296434;28;20815;-72
2022/03/28 05:14:38;;;;;;;24.25;12.88;;;;;;;3.70;90.55;102299.75;5295941;28;20059;-72
2022/03/28 05:17:10;;;;;;;37.40;13.10;;;;;;;3.70;90.27;102288.56;5296250;28;20123;-72
2022/03/28 05:19:43;;;;;;;35.70;12.90;;;;;;;3.67;90.67;102289.34;5296513;28;20103;-74
2022/03/28 05:22:14;;;;;;;29.63;12.60;;;;;;;3.65;90.77;102294.44;5296281;28;20028;-74
2022/03/28 05:24:47;;;;;;;35.63;13.73;;;;;;;3.65;91.30;102296.09;5295995;28;20490;-75
2022/03/28 05:27:18;;;;;;;26.73;13.88;;;;;;;3.64;91.43;102292.66;5296201;28;20433;-75
2022/03/28 05:29:50;;;;;;;29.87;13.40;;;;;;;3.68;91.08;102296.22;5295655;28;20032;-73
2022/03/28 05:32:21;;;;;;;27.90;14.97;;;;;;;3.67;91.21;102296.16;5295676;28;20035;-71
2022/03/28 05:34:52;;;;;;;34.90;12.27;;;;;;;3.65;91.04;102288.38;5295919;28;20076;-73
2022/03/28 05:37:24;;;;;;;28.70;12.07;;;;;;;3.65;91.37;102288.38;5295761;28;20028;-72
2022/03/28 05:39:55;;;;;;;45.63;12.33;;;;;;;3.66;91.75;102287.56;5295776;28;20036;-73
2022/03/28 05:42:27;;;;;;;31.30;11.80;;;;;;;3.62;91.68;102284.00;5295503;28;20063;-74
2022/03/28 05:44:58;;;;;;;35.10;13.53;;;;;;;3.62;91.77;102288.25;5295457;28;20063;-75
2022/03/28 05:47:30;;;;;;;34.90;13.33;;;;;;;3.67;91.44;102284.16;5295851;28;20028;-73
2022/03/28 05:50:01;;;;;;;38.83;14.13;;;;;;;3.65;91.88;102283.22;5295868;28;20027;-73
2022/03/28 05:52:32;;;;;;;30.00;11.80;;;;;;;3.68;92.12;102275.59;5295933;28;20035;-73
2022/03/28 05:55:05;;;;;;;28.93;12.37;;;;;;;3.66;92.09;102277.25;5295576;28;20506;-74
2022/03/28 05:57:37;;;;;;;;;;;;;;;3.73;91.13;102283.53;5295814;28;20031;-76
2022/03/28 06:00:09;;;;;;;30.08;12.07;;;;;;;3.78;91.12;102279.41;5295621;28;19916;-75
2022/03/28 06:02:42;;;;;;;33.42;12.93;;;;;;;3.82;91.91;102276.16;5295816;28;20028;-76
2022/03/28 06:05:13;;;;;;;32.80;12.20;;;;;;;3.81;91.76;102274.38;5296030;28;20021;-74
2022/03/28 06:07:45;;;;;;;37.40;14.07;;;;;;;3.82;91.86;102271.84;5295470;28;20024;-73
2022/03/28 06:10:17;;;;;;;41.08;13.50;;;;;;;3.90;92.17;102272.16;5295401;28;20028;-76
2022/03/28 06:12:48;;;;;;;23.80;10.87;;;;;;;3.96;91.70;102277.56;5295754;28;20036;-71
2022/03/28 06:15:19;;;;;;;33.90;12.60;;;;;;;4.00;91.60;102278.56;5293815;28;20498;-73
2022/03/28 06:17:51;;;;;;;28.60;11.63;;;;;;;4.07;92.03;102283.13;5295360;28;20035;-73
2022/03/28 06:20:22;;;;;;;32.47;12.93;;;;;;;4.14;91.80;102273.94;5295310;28;20062;-77
2022/03/28 06:22:54;;;;;;;35.57;12.90;;;;;;;4.20;92.03;102271.53;5296236;28;20516;-72
2022/03/28 06:25:25;;;;;;;33.47;11.57;;;;;;;4.22;92.27;102279.34;5299124;28;20020;-73
2022/03/28 06:27:57;;;;;;;33.07;12.07;;;;;;;4.30;92.41;102277.94;5299443;28;20111;-76
2022/03/28 06:30:28;;;;;;;36.77;12.53;;;;;;;4.37;92.92;102267.03;5299231;28;20031;-74
2022/03/28 06:33:00;;;;;;;47.30;13.00;;;;;;;4.42;93.28;102269.78;5299039;28;20036;-74
2022/03/28 06:35:31;;;;;;;33.13;14.97;;;;;;;4.46;93.56;102269.94;5299151;28;20454;-73
2022/03/28 06:38:02;;;;;;;45.60;14.50;;;;;;;4.60;93.64;102269.56;5299042;28;20056;-76
2022/03/28 06:40:34;;;;;;;43.00;13.67;;;;;;;4.65;93.80;102268.88;5299137;28;20075;-72
2022/03/28 06:43:05;;;;;;;35.93;14.00;;;;;;;4.69;94.35;102277.63;5298894;28;20314;-71
2022/03/28 06:45:37;;;;;;;42.23;14.53;;;;;;;4.75;94.14;102281.31;5298974;28;20038;-71
2022/03/28 06:48:08;;;;;;;32.87;13.13;;;;;;;4.83;94.36;102273.84;5298947;28;20027;-75
2022/03/28 06:50:40;;;;;;;42.07;12.47;;;;;;;4.89;94.40;102280.91;5298793;28;20034;-75
2022/03/28 06:53:11;;;;;;;39.00;14.27;;;;;;;4.96;94.26;102271.66;5298677;28;20529;-75
2022/03/28 06:55:43;;;;;;;40.17;14.23;;;;;;;5.04;94.11;102268.53;5298650;28;20070;-72
2022/03/28 06:58:16;;;;;;;39.73;14.33;;;;;;;5.13;94.07;102267.06;5299176;28;20480;-75
2022/03/28 07:00:47;;;;;;;38.60;13.38;;;;;;;5.20;93.98;102264.75;5298798;28;20028;-73
2022/03/28 07:03:19;;;;;;;41.03;12.97;;;;;;;5.34;93.15;102262.59;5298501;28;20024;-75
2022/03/28 07:05:50;;;;;;;37.17;13.07;;;;;;;5.45;93.29;102256.06;5298744;28;20031;-75
2022/03/28 07:08:22;;;;;;;36.17;13.30;;;;;;;5.56;93.26;102251.22;5298597;28;20451;-73
2022/03/28 07:10:53;;;;;;;40.20;13.27;;;;;;;5.65;92.82;102253.22;5298814;28;20039;-74
2022/03/28 07:13:25;;;;;;;32.27;13.17;;;;;;;5.71;93.02;102258.59;5298541;28;20028;-73
2022/03/28 07:15:56;;;;;;;39.70;15.20;;;;;;;5.82;92.57;102258.91;5298898;28;20028;-72
2022/03/28 07:18:28;;;;;;;35.73;14.57;;;;;;;5.97;92.38;102253.34;5296890;28;20035;-71
2022/03/28 07:20:59;;;;;;;43.00;13.93;;;;;;;6.06;92.25;102250.19;5298219;28;20036;-74
2022/03/28 07:23:31;;;;;;;27.80;13.90;;;;;;;6.27;91.62;102245.59;5298065;28;20032;-75
2022/03/28 07:26:02;;;;;;;36.93;16.00;;;;;;;6.35;90.50;102241.53;5298343;28;20472;-75
2022/03/28 07:28:35;;;;;;;37.77;15.17;;;;;;;6.50;90.04;102233.28;5298359;28;20024;-72
2022/03/28 07:31:08;;;;;;;32.03;14.55;;;;;;;6.58;89.60;102243.88;5298069;28;20059;-74
2022/03/28 07:33:41;;;;;;;31.67;16.33;;;;;;;6.71;88.83;102234.72;5297755;28;20097;-75
2022/03/28 07:36:12;;;;;;;38.65;15.55;;;;;;;6.82;88.62;102235.88;5297586;28;20040;-72
2022/03/28 07:38:43;;;;;;;38.63;15.73;;;;;;;6.98;88.43;102233.69;5297714;28;20028;-74
2022/03/28 07:41:15;;;;;;;41.97;15.80;;;;;;;7.08;88.08;102236.56;5298009;28;20059;-75
2022/03/28 07:43:46;;;;;;;33.80;16.17;;;;;;;7.20;87.61;102225.59;5298309;28;20039;-74
2022/03/28 07:46:18;;;;;;;36.87;18.43;;;;;;;7.35;86.99;102224.22;5296297;28;20028;-74
2022/03/28 07:48:49;;;;;;;30.90;15.83;;;;;;;7.46;86.19;102215.81;5297522;28;20055;-75
2022/03/28 07:51:20;;;;;;;36.50;15.33;;;;;;;7.69;86.48;102214.59;5297810;28;20075;-74
2022/03/28 07:53:54;;;;;;;40.60;15.67;;;;;;;7.91;85.98;102198.63;5297811;28;20134;-74
2022/03/28 07:56:25;;;;;;;32.63;16.33;;;;;;;8.01;85.01;102208.34;5298039;28;20077;-73
2022/03/28 07:58:58;;;;;;;37.90;15.33;;;;;;;8.14;83.95;102229.41;5297968;28;20024;-76
2022/03/28 08:01:29;;;;;;;36.13;15.82;;;;;;;8.27;83.38;102222.72;5297862;28;20545;-77
2022/03/28 08:04:01;;;;;;;38.13;16.93;;;;;;;8.34;82.86;102209.91;5297569;28;20126;-75
2022/03/28 08:06:32;;;;;;;37.10;17.00;;;;;;;8.64;82.75;102207.88;5297577;28;20032;-75
2022/03/28 08:09:04;;;;;;;39.60;16.97;;;;;;;8.85;81.45;102216.03;5297309;28;20177;-77
2022/03/28 08:11:35;;;;;;;36.17;17.60;;;;;;;9.18;81.86;102207.06;5297304;28;20152;-73
2022/03/28 08:14:07;;;;;;;35.97;16.17;;;;;;;9.07;79.35;102206.00;5297089;28;20550;-72
2022/03/28 08:16:38;;;;;;;30.10;15.37;;;;;;;9.20;79.49;102200.13;5297227;28;20047;-74
2022/03/28 08:19:10;;;;;;;38.33;16.47;;;;;;;9.24;78.97;102201.94;5297242;28;20507;-74
2022/03/28 08:21:41;;;;;;;30.20;16.17;;;;;;;9.60;79.25;102197.25;5298147;28;20032;-74
2022/03/28 08:24:12;;;;;;;35.57;16.83;;;;;;;9.63;78.40;102189.50;5297691;28;20072;-75
2022/03/28 08:26:45;;;;;;;40.27;17.67;;;;;;;9.53;76.59;102196.31;5297251;28;20348;-74
2022/03/28 08:29:17;;;;;;;;;;;;;;;9.84;77.38;102191.50;5297750;28;20120;-72
2022/03/28 08:31:49;;;;;;;33.60;15.93;;;;;;;9.72;76.92;102186.13;5297306;28;20008;-75
2022/03/28 08:34:20;;;;;;;31.40;16.53;;;;;;;9.85;76.47;102181.13;5297465;28;20036;-74
2022/03/28 08:36:52;;;;;;;41.80;18.50;;;;;;;9.94;75.77;102188.16;5296764;28;20056;-72
2022/03/28 08:39:23;;;;;;;32.40;16.53;;;;;;;10.12;75.09;102187.50;5297297;28;20052;-72
2022/03/28 08:41:55;;;;;;;39.90;17.93;;;;;;;10.35;74.36;102181.69;5297625;28;20048;-73
2022/03/28 08:44:28;;;;;;;37.17;18.52;;;;;;;10.34;72.78;102177.34;5297186;28;20082;-72
2022/03/28 08:47:00;;;;;;;38.55;19.17;;;;;;;10.70;72.87;102186.38;5295407;28;20103;-73
2022/03/28 08:49:34;;;;;;;32.00;17.40;;;;;;;10.77;72.31;102183.84;5296873;28;20035;-72
2022/03/28 08:52:06;;;;;;;36.25;16.73;;;;;;;10.84;71.56;102179.56;5296455;28;20036;-72
2022/03/28 08:54:37;;;;;;;31.80;17.67;;;;;;;10.99;72.00;102180.56;5297402;28;20034;-73
2022/03/28 08:57:10;;;;;;;32.10;19.00;;;;;;;11.29;71.69;102182.50;5297092;28;20024;-73
2022/03/28 08:59:42;;;;;;;33.65;18.02;;;;;;;11.40;69.56;102178.22;5296749;28;20093;-73
2022/03/28 09:02:45;;;;;;;35.47;20.03;;;;;;;12.08;68.40;102175.09;5296781;28;20028;-74
2022/03/28 09:05:27;;;;;;;35.33;18.27;;;;;;;12.92;65.40;102172.59;5297197;28;20145;-72
2022/03/28 09:07:59;;;;;;;31.98;17.90;;;;;;;13.49;62.18;102174.28;5296652;28;20032;-75
2022/03/28 09:10:33;;;;;;;30.35;17.50;;;;;;;13.78;61.73;102171.59;5296523;28;20043;-73
2022/03/28 09:13:10;;;;;;;33.00;18.95;;;;;;;14.35;60.73;102168.66;5296417;28;20020;-74
2022/03/28 09:15:56;;;;;;;32.70;20.02;;;;;;;14.82;58.71;102174.47;5294648;28;20047;-72
2022/03/28 09:18:30;;;;;;;37.05;20.25;;;;;;;14.81;56.20;102157.00;5296415;28;20107;-73
2022/03/28 09:21:07;;;;;;;40.92;20.77;;;;;;;14.97;56.17;102159.47;5296497;28;20109;-73
2022/03/28 09:23:44;;;;;;;33.33;20.40;;;;;;;15.23;56.16;102169.72;5296650;28;20032;-74
2022/03/28 09:26:20;;;;;;;33.33;22.88;;;;;;;15.52;54.13;102160.66;5296451;28;20043;-74
2022/03/28 09:29:03;;;;;;;38.65;22.45;;;;;;;16.02;54.13;102173.22;5296192;28;20413;-73
2022/03/28 09:31:44;;;;;;;36.40;21.58;;;;;;;16.00;52.33;102167.13;5296235;28;20115;-75
2022/03/28 09:34:17;;;;;;;37.03;24.00;;;;;;;15.84;51.62;102168.19;5296129;28;20478;-72
2022/03/28 09:36:54;;;;;;;36.05;23.42;;;;;;;15.97;50.84;102158.38;5296376;28;20054;-73
2022/03/28 09:39:30;;;;;;;36.97;22.75;;;;;;;16.09;50.94;102152.97;5296434;28;20109;-73
2022/03/28 09:42:08;;;;;;;29.58;20.60;;;;;;;15.83;52.03;102159.44;5296462;28;20080;-73
2022/03/28 09:44:50;;;;;;;33.17;22.23;;;;;;;16.20;50.91;102153.69;5296529;28;20028;-74
2022/03/28 09:47:24;;;;;;;34.08;22.20;;;;;;;16.63;49.39;102144.28;5296721;28;20483;-75
2022/03/28 09:49:57;;;;;;;33.90;20.27;;;;;;;17.40;48.79;102145.53;5296825;28;20032;-74
2022/03/28 09:52:29;;;;;;;;;;;;;;;18.35;48.96;102149.69;5296902;28;20024;-74
2022/03/28 09:55:05;;;;;;;36.90;20.88;;;;;;;17.70;46.97;102130.00;5296241;28;19969;-73
2022/03/28 09:57:37;;;;;;;33.28;20.98;;;;;;;17.86;45.55;102130.53;5295213;28;20051;-75
2022/03/28 10:00:17;;;;;;;35.27;21.23;;;;;;;18.00;46.23;102123.22;5300699;28;20805;-73
2022/03/28 10:02:49;;;;;;;30.58;20.02;;;;;;;18.22;45.34;102123.59;5300903;28;20628;-72
2022/03/28 10:05:21;;;;;;;28.02;20.63;;;;;;;18.84;44.59;102130.03;5308846;28;20444;-72
2022/03/28 10:07:54;;;;;;;33.03;21.60;;;;;;;19.30;44.26;102126.16;5304805;28;20039;-74
2022/03/28 10:10:26;;;;;;;29.27;20.17;;;;;;;19.85;44.13;102128.09;5298097;28;20056;-73
2022/03/28 10:13:01;;;;;;;37.47;23.15;;;;;;;19.40;41.36;102125.88;5300276;28;20056;-73
2022/03/28 10:15:32;;;;;;;38.90;23.75;;;;;;;19.79;41.06;102125.66;5300217;28;20130;-74
2022/03/28 10:18:04;;;;;;;30.03;22.27;;;;;;;20.09;40.84;102125.63;5300243;28;20968;-76
2022/03/28 10:20:41;;;;;;;31.58;26.40;;;;;;;19.60;38.37;102123.53;5300548;28;20051;-74
2022/03/28 10:23:17;;;;;;;34.65;25.95;;;;;;;19.22;39.82;102122.81;5300661;28;20071;-73
2022/03/28 10:25:52;;;;;;;32.17;25.20;;;;;;;19.01;40.50;102119.00;5300284;28;20028;-75
2022/03/28 10:28:23;;;;;;;31.85;25.83;;;;;;;19.22;40.29;102117.53;5299882;28;20035;-73
2022/03/28 10:31:16;;;;;;;33.83;26.30;;;;;;;19.53;39.56;102103.47;5300480;28;20028;-74
2022/03/28 10:33:51;;;;;;;34.40;24.98;;;;;;;19.59;39.45;102097.97;5299826;28;20047;-74
2022/03/28 10:36:27;;;;;;;34.45;25.10;;;;;;;20.35;39.16;102096.53;5300104;28;20096;-74
2022/03/28 10:39:35;;;;;;;32.53;23.00;;;;;;;22.10;37.75;102085.75;5299748;28;20048;-76
2022/03/28 10:42:16;;;;;;;33.22;23.65;;;;;;;22.02;35.64;102083.44;5300262;28;20062;-73
2022/03/28 10:45:03;;;;;;;29.83;23.15;;;;;;;23.34;34.50;102081.38;5299645;28;20463;-74
2022/03/28 10:47:43;;;;;;;32.00;21.85;;;;;;;23.49;33.36;102078.00;5299659;28;20111;-75
2022/03/28 10:50:25;;;;;;;29.23;21.08;;;;;;;24.20;32.79;102073.78;5299790;28;20372;-75
2022/03/28 10:53:13;;;;;;;32.70;22.15;;;;;;;24.29;33.02;102067.97;5299574;28;20031;-74
2022/03/28 10:55:58;;;;;;;28.60;23.08;;;;;;;23.70;33.82;102058.41;5299471;28;20100;-74
2022/03/28 10:58:42;;;;;;;33.85;22.73;;;;;;;23.93;32.89;102060.03;5299764;28;20111;-74
2022/03/28 11:01:15;;;;;;;32.00;23.25;;;;;;;23.37;32.70;102067.94;5299576;28;20078;-76
2022/03/28 11:04:06;;;;;;;30.50;22.63;;;;;;;23.56;32.81;102061.75;5299439;28;20073;-74
2022/03/28 11:06:43;;;;;;;32.60;22.48;;;;;;;23.34;32.70;102067.22;5299336;28;20112;-75
2022/03/28 11:09:41;;;;;;;28.13;21.40;;;;;;;23.71;32.32;102060.16;5299343;28;20024;-75
2022/03/28 11:12:17;;;;;;;34.30;23.67;;;;;;;23.91;32.80;102060.09;5299088;28;20100;-73
2022/03/28 11:14:52;;;;;;;30.02;23.80;;;;;;;23.70;31.22;102053.09;5299651;28;20035;-76
2022/03/28 11:17:37;;;;;;;29.45;23.20;;;;;;;24.66;29.95;102052.78;5311151;28;20071;-75
2022/03/28 11:20:14;;;;;;;29.65;23.83;;;;;;;24.21;29.91;102041.72;5299722;28;20020;-75
2022/03/28 11:22:49;;;;;;;28.27;22.35;;;;;;;24.43;29.43;102051.28;5298657;28;20025;-74
2022/03/28 11:25:27;;;;;;;28.30;22.30;;;;;;;25.14;30.49;102039.59;5298728;28;20084;-74
2022/03/28 11:28:16;;;;;;;30.65;23.33;;;;;;;25.40;29.46;102034.66;5298332;28;20024;-75
2022/03/28 11:31:11;;;;;;;27.48;23.50;;;;;;;25.78;27.15;102026.28;5298682;28;20430;-76
2022/03/28 11:33:48;;;;;;;27.58;22.20;;;;;;;24.23;27.90;102035.44;5298546;28;20505;-76
2022/03/28 11:36:22;;;;;;;28.35;22.92;;;;;;;23.23;29.18;102026.03;5298380;28;20082;-75
2022/03/28 11:38:59;;;;;;;24.92;19.83;;;;;;;23.52;28.22;102023.75;5298365;28;20093;-75
2022/03/28 11:41:30;;;;;;;24.13;19.27;;;;;;;23.55;28.39;102018.28;5298288;28;20032;-74
2022/03/28 11:44:03;;;;;;;27.40;21.17;;;;;;;23.71;27.74;102014.91;5298087;28;20100;-76
2022/03/28 11:46:35;;;;;;;24.42;21.73;;;;;;;24.45;27.59;102013.91;5296330;28;20040;-74